Time;durP1;ratioP1;P1;durP2;ratioP2;P2;SDS_P1;SDS_P2;PMS_P1;PMS_P2;Temp;Humidity;BMP_temperature;BMP_pressure;BME280_temperature;BME280_humidity;BME280_pressure;Samples;Min_cycle;Max_cycle;Signal;HPM_P1;HPM_P2
2021/04/05 00:00:12;;;;;;;30.42;13.88;;;4.30;85.90;;;;;;4983236;28;20050;-70
2021/04/05 00:02:38;;;;;;;26.70;13.98;;;4.30;86.00;;;;;;4986646;28;20022;-70
2021/04/05 00:05:10;;;;;;;30.45;15.73;;;4.20;86.00;;;;;;4981831;28;20109;-70
2021/04/05 00:07:36;;;;;;;23.50;13.50;;;4.20;86.10;;;;;;4986226;28;20033;-70
2021/04/05 00:10:09;;;;;;;26.08;15.75;;;4.20;86.00;;;;;;4980874;28;20070;-69
2021/04/05 00:12:36;;;;;;;34.60;17.85;;;4.20;86.10;;;;;;4986267;28;20510;-72
2021/04/05 00:15:02;;;;;;;29.45;16.25;;;4.30;85.90;;;;;;4989139;28;20038;-71
2021/04/05 00:17:28;;;;;;;29.20;17.15;;;4.20;86.00;;;;;;4984468;28;20423;-70
2021/04/05 00:19:53;;;;;;;34.50;16.30;;;4.30;85.90;;;;;;4983428;28;20030;-71
2021/04/05 00:22:19;;;;;;;26.67;17.33;;;4.30;85.90;;;;;;4986525;28;20030;-70
2021/04/05 00:24:45;;;;;;;30.52;16.55;;;4.30;85.90;;;;;;4984530;28;20036;-70
2021/04/05 00:27:10;;;;;;;31.48;16.35;;;4.30;85.90;;;;;;4985864;28;20037;-70
2021/04/05 00:29:36;;;;;;;32.17;17.35;;;4.30;85.80;;;;;;4985258;28;20037;-70
2021/04/05 00:32:01;;;;;;;30.35;16.90;;;4.40;85.50;;;;;;4985896;28;20022;-69
2021/04/05 00:34:27;;;;;;;29.88;17.42;;;4.40;85.30;;;;;;4986817;28;20034;-70
2021/04/05 00:36:53;;;;;;;30.60;16.42;;;4.50;85.30;;;;;;4987577;28;20501;-71
2021/04/05 00:39:18;;;;;;;27.30;17.25;;;4.40;85.20;;;;;;4983575;28;20077;-70
2021/04/05 00:41:44;;;;;;;26.50;16.65;;;4.40;85.40;;;;;;4986110;28;20110;-71
2021/04/05 00:44:09;;;;;;;29.13;17.75;;;4.50;84.80;;;;;;4985831;28;20018;-71
2021/04/05 00:46:35;;;;;;;30.02;17.67;;;4.50;85.10;;;;;;4986123;28;20484;-71
2021/04/05 00:49:02;;;;;;;30.02;17.58;;;4.50;84.80;;;;;;4990280;28;20058;-71
2021/04/05 00:51:28;;;;;;;26.13;17.58;;;4.50;85.00;;;;;;4986316;28;20027;-72
2021/04/05 00:53:54;;;;;;;28.23;15.73;;;4.50;84.80;;;;;;4983974;28;20027;-72
2021/04/05 00:56:22;;;;;;;29.10;17.30;;;4.50;84.80;;;;;;4987123;28;20022;-71
2021/04/05 00:58:49;;;;;;;27.73;16.58;;;4.60;84.70;;;;;;4986041;28;20034;-71
2021/04/05 01:01:19;;;;;;;30.02;17.52;;;4.50;84.60;;;;;;4985191;28;20556;-71
2021/04/05 01:03:45;;;;;;;29.10;16.30;;;4.60;84.80;;;;;;4985917;28;20471;-72
2021/04/05 01:06:24;;;;;;;26.65;16.85;;;4.50;84.80;;;;;;4988778;28;20042;-71
2021/04/05 01:08:50;;;;;;;25.08;15.55;;;4.60;84.60;;;;;;4985419;28;20069;-70
2021/04/05 01:11:18;;;;;;;26.65;17.70;;;4.60;84.60;;;;;;4987257;28;20497;-71
2021/04/05 01:13:45;;;;;;;29.05;18.08;;;4.60;84.60;;;;;;4984376;28;20049;-70
2021/04/05 01:16:11;;;;;;;28.92;16.08;;;4.60;84.50;;;;;;4987226;28;20183;-71
2021/04/05 01:18:37;;;;;;;29.05;16.23;;;4.60;84.40;;;;;;4986219;28;20092;-69
2021/04/05 01:21:03;;;;;;;28.67;15.80;;;4.60;84.60;;;;;;4986027;28;20054;-69
2021/04/05 01:23:29;;;;;;;26.98;16.15;;;4.70;84.50;;;;;;4987503;28;20065;-70
2021/04/05 01:25:55;;;;;;;24.40;15.77;;;4.70;84.40;;;;;;4986717;28;20030;-71
2021/04/05 01:28:21;;;;;;;25.83;15.30;;;4.70;84.20;;;;;;4995091;28;20591;-70
2021/04/05 01:30:50;;;;;;;27.83;14.60;;;4.80;84.10;;;;;;4986571;28;20452;-70
2021/04/05 01:33:30;;;;;;;23.20;13.50;;;4.80;84.00;;;;;;4986486;28;20035;-70
2021/04/05 01:36:11;;;;;;;26.30;12.85;;;4.90;83.70;;;;;;4988285;28;20041;-71
2021/04/05 01:38:43;;;;;;;20.88;12.27;;;4.90;83.60;;;;;;4991503;28;20030;-70
2021/04/05 01:41:18;;;;;;;22.33;12.25;;;5.00;83.50;;;;;;4983899;28;20444;-69
2021/04/05 01:43:44;;;;;;;21.02;12.77;;;5.00;83.60;;;;;;4986227;28;20034;-69
2021/04/05 01:46:12;;;;;;;24.42;14.05;;;5.00;83.40;;;;;;4980493;28;20519;-69
2021/04/05 01:48:38;;;;;;;23.65;12.20;;;5.10;83.30;;;;;;4986700;28;20038;-69
2021/04/05 01:51:26;;;;;;;23.85;11.77;;;5.10;83.40;;;;;;4986495;28;20049;-69
2021/04/05 01:53:53;;;;;;;26.95;12.32;;;5.10;83.20;;;;;;4986685;28;20026;-70
2021/04/05 01:56:19;;;;;;;24.85;11.27;;;5.10;83.20;;;;;;4992852;28;20034;-70
2021/04/05 01:58:48;;;;;;;22.30;12.05;;;5.10;83.10;;;;;;4990553;28;20029;-68
2021/04/05 02:01:17;;;;;;;19.73;12.32;;;5.10;83.20;;;;;;4985802;28;20350;-69
2021/04/05 02:03:42;;;;;;;22.48;11.43;;;5.20;83.30;;;;;;4985825;28;20073;-69
2021/04/05 02:06:10;;;;;;;23.48;11.13;;;5.20;83.50;;;;;;4985604;28;20049;-70
2021/04/05 02:08:37;;;;;;;22.30;12.40;;;5.10;83.60;;;;;;4994222;28;20041;-69
2021/04/05 02:11:12;;;;;;;22.38;11.90;;;5.20;83.60;;;;;;4988538;28;20182;-70
2021/04/05 02:13:39;;;;;;;18.33;10.20;;;5.20;83.60;;;;;;4986263;28;20090;-70
2021/04/05 02:16:05;;;;;;;24.60;10.98;;;5.30;83.40;;;;;;4986193;28;20038;-70
2021/04/05 02:18:31;;;;;;;17.42;10.23;;;5.30;83.50;;;;;;4987386;28;20026;-70
2021/04/05 02:20:57;;;;;;;18.38;10.40;;;5.30;83.60;;;;;;4985029;28;20459;-70
2021/04/05 02:23:25;;;;;;;17.30;10.45;;;5.30;83.70;;;;;;4986197;28;20029;-71
2021/04/05 02:26:08;;;;;;;14.50;9.65;;;5.30;83.80;;;;;;4991043;28;20510;-70
2021/04/05 02:28:41;;;;;;;23.40;10.63;;;5.30;83.90;;;;;;4989665;28;20034;-69
2021/04/05 02:31:11;;;;;;;19.77;10.57;;;5.40;83.80;;;;;;5005545;28;20437;-70
2021/04/05 02:33:43;;;;;;;23.10;11.25;;;5.40;83.70;;;;;;4996266;28;20483;-70
2021/04/05 02:36:11;;;;;;;19.80;10.32;;;5.40;83.90;;;;;;4989450;28;20395;-70
2021/04/05 02:38:39;;;;;;;19.15;10.35;;;5.40;83.90;;;;;;4991718;28;20088;-70
2021/04/05 02:41:09;;;;;;;17.80;9.82;;;5.50;84.00;;;;;;4987851;28;20297;-70
2021/04/05 02:43:36;;;;;;;17.50;10.77;;;5.40;84.00;;;;;;4991768;28;20021;-70
2021/04/05 02:46:02;;;;;;;22.95;11.68;;;5.40;84.10;;;;;;4983026;28;20061;-70
2021/04/05 02:48:31;;;;;;;18.75;8.40;;;5.40;84.30;;;;;;4989323;28;20089;-70
2021/04/05 02:51:01;;;;;;;20.38;10.85;;;5.40;84.30;;;;;;4990123;28;20031;-70
2021/04/05 02:53:27;;;;;;;16.98;10.40;;;5.50;84.30;;;;;;4996449;28;20056;-70
2021/04/05 02:55:53;;;;;;;20.38;11.07;;;5.50;84.40;;;;;;4990876;28;20074;-71
2021/04/05 02:58:20;;;;;;;19.23;9.63;;;5.50;84.40;;;;;;4986861;28;20301;-70
2021/04/05 03:00:46;;;;;;;17.48;9.93;;;5.50;84.40;;;;;;4990581;28;20299;-71
2021/04/05 03:03:12;;;;;;;24.63;11.65;;;5.60;84.60;;;;;;4987339;28;20018;-70
2021/04/05 03:05:39;;;;;;;23.52;10.98;;;5.60;84.70;;;;;;4988754;28;20037;-71
2021/04/05 03:08:05;;;;;;;23.45;12.52;;;5.50;85.40;;;;;;4987351;28;20408;-70
2021/04/05 03:10:35;;;;;;;18.20;10.35;;;5.40;86.10;;;;;;4992335;28;20061;-70
2021/04/05 03:13:02;;;;;;;26.05;11.75;;;5.40;86.10;;;;;;4992682;28;20022;-70
2021/04/05 03:15:28;;;;;;;18.80;11.25;;;5.40;85.90;;;;;;4992763;28;20058;-70
2021/04/05 03:18:03;;;;;;;27.75;12.40;;;5.50;86.00;;;;;;4989900;28;20591;-70
2021/04/05 03:20:32;;;;;;;22.20;12.60;;;5.40;86.30;;;;;;4993532;28;20093;-71
2021/04/05 03:22:59;;;;;;;22.45;11.20;;;5.40;86.60;;;;;;4988074;28;20050;-70
2021/04/05 03:25:25;;;;;;;20.38;12.50;;;5.40;86.80;;;;;;4992719;28;20491;-70
2021/04/05 03:27:51;;;;;;;25.90;12.13;;;5.40;86.70;;;;;;4987982;28;20076;-71
2021/04/05 03:30:31;;;;;;;23.83;12.00;;;5.50;86.70;;;;;;4990680;28;20045;-70
2021/04/05 03:33:07;;;;;;;32.50;14.05;;;5.40;86.70;;;;;;4987490;28;20158;-71
2021/04/05 03:35:37;;;;;;;26.92;13.55;;;5.40;87.10;;;;;;4987591;28;20027;-70
2021/04/05 03:38:03;;;;;;;23.85;11.75;;;5.40;87.50;;;;;;4993355;28;20414;-71
2021/04/05 03:40:30;;;;;;;26.90;13.10;;;5.40;88.20;;;;;;4983719;28;20106;-70
2021/04/05 03:43:07;;;;;;;26.90;13.93;;;5.30;88.60;;;;;;4986947;28;20076;-72
2021/04/05 03:46:14;;;;;;;29.30;15.25;;;5.20;89.30;;;;;;4986453;28;20026;-70
2021/04/05 03:48:50;;;;;;;25.55;14.63;;;5.20;89.80;;;;;;4989077;28;20038;-70
2021/04/05 03:51:22;;;;;;;32.53;15.05;;;5.10;90.60;;;;;;4985059;28;20069;-70
2021/04/05 03:53:58;;;;;;;27.83;15.18;;;5.10;91.30;;;;;;4989453;28;20205;-70
2021/04/05 03:56:29;;;;;;;31.25;16.05;;;5.00;91.80;;;;;;4988267;28;20026;-71
2021/04/05 03:59:01;;;;;;;28.25;13.52;;;5.00;91.90;;;;;;4986068;28;20109;-69
2021/04/05 04:01:30;;;;;;;31.00;16.17;;;5.00;92.50;;;;;;4988149;28;20027;-70
2021/04/05 04:04:03;;;;;;;35.05;17.15;;;5.00;92.60;;;;;;4988239;28;20519;-72
2021/04/05 04:06:47;;;;;;;31.50;15.80;;;5.00;92.90;;;;;;4987041;28;20165;-70
2021/04/05 04:09:16;;;;;;;31.98;17.92;;;4.90;93.20;;;;;;4987002;28;20038;-70
2021/04/05 04:11:44;;;;;;;32.03;17.45;;;4.90;93.40;;;;;;4993709;28;20034;-69
2021/04/05 04:14:12;;;;;;;39.60;18.13;;;4.90;93.40;;;;;;4979336;28;20403;-72
2021/04/05 04:16:38;;;;;;;34.50;18.02;;;4.90;93.60;;;;;;4983746;28;20535;-70
2021/04/05 04:19:06;;;;;;;37.60;18.48;;;4.90;93.70;;;;;;4984791;28;20156;-70
2021/04/05 04:21:32;;;;;;;27.77;16.67;;;4.90;93.90;;;;;;4988741;28;20030;-68
2021/04/05 04:23:59;;;;;;;35.75;18.92;;;4.90;93.80;;;;;;4984313;28;20351;-69
2021/04/05 04:26:25;;;;;;;38.83;20.48;;;4.90;93.80;;;;;;4986185;28;20034;-70
2021/04/05 04:28:51;;;;;;;25.90;12.48;;;5.00;94.00;;;;;;4986494;28;20033;-69
2021/04/05 04:31:20;;;;;;;38.63;19.52;;;5.00;94.00;;;;;;4991133;28;20037;-71
2021/04/05 04:33:47;;;;;;;44.25;19.25;;;5.00;94.10;;;;;;4987560;28;20507;-70
2021/04/05 04:36:20;;;;;;;33.33;17.38;;;5.00;94.40;;;;;;4988623;28;20108;-70
2021/04/05 04:38:46;;;;;;;40.90;18.00;;;5.10;94.50;;;;;;4986567;28;20026;-71
2021/04/05 04:41:11;;;;;;;41.72;16.70;;;5.00;94.60;;;;;;4987659;28;20121;-70
2021/04/05 04:43:37;;;;;;;34.50;17.45;;;5.10;94.80;;;;;;4997695;28;20387;-70
2021/04/05 04:46:03;;;;;;;25.42;13.60;;;5.10;94.90;;;;;;4986867;28;20037;-70
2021/04/05 04:48:28;;;;;;;8.77;3.22;;;5.10;95.20;;;;;;4986210;28;20522;-70
2021/04/05 04:50:54;;;;;;;5.60;2.42;;;3.80;91.50;;;;;;4986475;28;20414;-70
2021/04/05 04:53:20;;;;;;;3.05;1.38;;;3.40;92.80;;;;;;4988383;28;20042;-70
2021/04/05 04:55:45;;;;;;;2.38;0.90;;;3.40;93.50;;;;;;4988926;28;20443;-69
2021/04/05 04:58:11;;;;;;;2.63;1.10;;;3.30;93.80;;;;;;4983484;28;20030;-70
2021/04/05 05:00:37;;;;;;;1.70;0.80;;;3.40;94.00;;;;;;4986676;28;20109;-69
2021/04/05 05:03:05;;;;;;;2.38;0.90;;;3.40;94.10;;;;;;4987768;28;20046;-69
2021/04/05 05:05:33;;;;;;;1.65;0.65;;;3.40;93.60;;;;;;4987042;28;20257;-69
2021/04/05 05:07:59;;;;;;;1.42;0.88;;;3.40;94.00;;;;;;5002662;28;20029;-70
2021/04/05 05:10:26;;;;;;;1.45;0.68;;;3.40;94.10;;;;;;4986803;28;20530;-70
2021/04/05 05:12:51;;;;;;;2.40;0.82;;;3.40;94.20;;;;;;4987801;28;20495;-70
2021/04/05 05:15:17;;;;;;;4.68;0.90;;;3.40;94.30;;;;;;4988902;28;20119;-70
2021/04/05 05:17:45;;;;;;;1.13;0.77;;;3.40;94.30;;;;;;4989193;28;20058;-69
2021/04/05 05:20:13;;;;;;;2.65;0.85;;;3.40;94.20;;;;;;4991001;28;20206;-71
2021/04/05 05:22:48;;;;;;;1.98;1.05;;;3.40;94.40;;;;;;4990151;28;20042;-71
2021/04/05 05:25:19;;;;;;;2.40;0.70;;;3.40;94.40;;;;;;4989523;28;20437;-71
2021/04/05 05:28:02;;;;;;;1.88;0.80;;;3.40;94.40;;;;;;4990353;28;20039;-69
2021/04/05 05:30:28;;;;;;;1.98;0.88;;;3.40;94.30;;;;;;4985306;28;20453;-70
2021/04/05 05:32:55;;;;;;;2.92;0.90;;;3.40;94.30;;;;;;4987168;28;20036;-70
2021/04/05 05:35:22;;;;;;;2.45;0.85;;;3.40;94.10;;;;;;4983444;28;20038;-70
2021/04/05 05:37:49;;;;;;;2.72;0.88;;;3.40;93.30;;;;;;4985729;28;20423;-70
2021/04/05 05:40:24;;;;;;;3.65;1.02;;;3.40;92.90;;;;;;4981014;28;20041;-70
2021/04/05 05:43:05;;;;;;;2.05;0.80;;;3.40;93.10;;;;;;4985563;28;20415;-71
2021/04/05 05:45:46;;;;;;;5.35;1.40;;;3.50;93.30;;;;;;4986931;28;20048;-69
2021/04/05 05:48:25;;;;;;;2.72;0.88;;;3.50;93.00;;;;;;4989066;28;20054;-70
2021/04/05 05:51:06;;;;;;;5.70;1.00;;;3.40;93.00;;;;;;4987585;28;20033;-71
2021/04/05 05:53:41;;;;;;;3.80;1.13;;;3.50;92.80;;;;;;4986117;28;20097;-72
2021/04/05 05:56:28;;;;;;;4.13;1.27;;;3.50;93.10;;;;;;4984426;28;20034;-69
2021/04/05 05:59:01;;;;;;;5.97;1.40;;;3.50;92.90;;;;;;4987515;28;20026;-69
2021/04/05 06:01:42;;;;;;;3.10;0.77;;;3.50;93.10;;;;;;4994647;28;20033;-68
2021/04/05 06:04:36;;;;;;;4.68;1.33;;;3.40;92.90;;;;;;4990572;28;20050;-69
2021/04/05 06:07:16;;;;;;;6.68;1.15;;;3.40;93.00;;;;;;4987287;28;20113;-69
2021/04/05 06:10:03;;;;;;;8.88;1.45;;;3.40;92.70;;;;;;4990963;28;20088;-69
2021/04/05 06:12:58;;;;;;;4.13;1.00;;;3.30;92.30;;;;;;4988663;28;20105;-69
2021/04/05 06:15:56;;;;;;;6.65;1.92;;;3.30;91.80;;;;;;4988879;28;20034;-71
2021/04/05 06:18:31;;;;;;;7.50;1.50;;;3.20;91.50;;;;;;4993558;28;20546;-71
2021/04/05 06:21:22;;;;;;;6.32;1.48;;;3.20;92.10;;;;;;4989595;28;20027;-69
2021/04/05 06:23:55;;;;;;;5.30;1.55;;;3.10;91.90;;;;;;4992876;28;20033;-69
2021/04/05 06:26:57;;;;;;;10.27;2.00;;;3.00;91.40;;;;;;4994133;28;20105;-69
2021/04/05 06:29:27;;;;;;;9.80;1.67;;;3.00;91.40;;;;;;4989437;28;20395;-69
2021/04/05 06:32:15;;;;;;;8.77;1.88;;;3.00;90.60;;;;;;4999517;28;20022;-70
2021/04/05 06:34:50;;;;;;;13.00;1.73;;;3.00;89.50;;;;;;5000091;28;20129;-69
2021/04/05 06:37:38;;;;;;;6.80;1.35;;;2.90;90.60;;;;;;4989325;28;20022;-70
2021/04/05 06:40:07;;;;;;;9.57;1.67;;;2.80;90.50;;;;;;4982453;28;20034;-70
2021/04/05 06:42:56;;;;;;;11.05;1.63;;;2.90;89.90;;;;;;4990289;28;20031;-70
2021/04/05 06:45:25;;;;;;;9.40;1.92;;;2.80;89.40;;;;;;4992952;28;20026;-70
2021/04/05 06:48:17;;;;;;;3.83;0.98;;;2.70;89.10;;;;;;4989193;28;20034;-68
2021/04/05 06:51:01;;;;;;;5.25;1.38;;;2.70;89.80;;;;;;4969287;28;20042;-69
2021/04/05 06:53:35;;;;;;;9.32;1.25;;;2.80;90.40;;;;;;4989319;28;20030;-69
2021/04/05 06:56:15;;;;;;;14.13;2.03;;;2.70;89.70;;;;;;4991946;28;20041;-68
2021/04/05 06:59:16;;;;;;;7.82;1.48;;;2.80;90.40;;;;;;4989188;28;20038;-69
2021/04/05 07:02:20;;;;;;;11.63;1.48;;;2.80;90.00;;;;;;5003083;28;20041;-69
2021/04/05 07:05:29;;;;;;;13.90;1.65;;;2.90;90.60;;;;;;4968629;28;20038;-68
2021/04/05 07:08:10;;;;;;;7.95;1.90;;;2.90;90.70;;;;;;4984426;28;20380;-71
2021/04/05 07:10:45;;;;;;;13.30;1.92;;;2.90;90.10;;;;;;4988484;28;20521;-67
2021/04/05 07:13:19;;;;;;;7.43;1.40;;;2.80;89.90;;;;;;4988557;28;20038;-69
2021/04/05 07:16:09;;;;;;;7.47;1.50;;;2.80;91.20;;;;;;5002230;28;20506;-69
2021/04/05 07:18:44;;;;;;;12.43;1.63;;;2.80;91.30;;;;;;4983791;28;20034;-69
2021/04/05 07:21:33;;;;;;;11.73;1.90;;;2.70;90.90;;;;;;4994338;28;20031;-68
2021/04/05 07:24:21;;;;;;;5.47;1.17;;;2.80;91.10;;;;;;4982637;28;20834;-69
2021/04/05 07:26:57;;;;;;;14.57;2.47;;;2.80;90.60;;;;;;4985660;28;20201;-69
2021/04/05 07:29:34;;;;;;;5.38;1.02;;;2.80;90.90;;;;;;4982832;28;20062;-71
2021/04/05 07:32:12;;;;;;;11.20;1.48;;;2.70;89.60;;;;;;4987879;28;20161;-69
2021/04/05 07:34:57;;;;;;;13.90;1.25;;;2.80;90.10;;;;;;4989026;28;20030;-68
2021/04/05 07:37:53;;;;;;;4.72;1.45;;;2.80;90.00;;;;;;4987680;28;20034;-69
2021/04/05 07:40:33;;;;;;;9.32;1.17;;;2.80;88.50;;;;;;4989178;28;20047;-69
2021/04/05 07:43:06;;;;;;;11.07;1.55;;;2.70;87.00;;;;;;4988773;28;20112;-69
2021/04/05 07:45:32;;;;;;;8.35;2.08;;;2.90;88.20;;;;;;4983390;28;20052;-69
2021/04/05 07:48:17;;;;;;;7.20;2.90;;;2.90;86.90;;;;;;4989277;28;20030;-70
2021/04/05 07:50:56;;;;;;;10.43;1.90;;;2.90;87.30;;;;;;4990698;28;20499;-69
2021/04/05 07:53:29;;;;;;;13.23;1.52;;;3.00;86.50;;;;;;4994069;28;20396;-69
2021/04/05 07:56:01;;;;;;;9.23;1.75;;;3.00;85.70;;;;;;4985960;28;20046;-69
2021/04/05 07:58:51;;;;;;;5.55;1.30;;;3.00;85.90;;;;;;4975143;28;20451;-69
2021/04/05 08:01:20;;;;;;;8.70;2.08;;;3.00;86.40;;;;;;5008751;28;20480;-71
2021/04/05 08:04:00;;;;;;;6.88;1.20;;;2.70;87.60;;;;;;5008249;28;20113;-69
2021/04/05 08:06:35;;;;;;;5.63;1.43;;;2.30;87.70;;;;;;5014770;28;20128;-69
2021/04/05 08:09:07;;;;;;;5.60;1.13;;;2.20;88.10;;;;;;5014390;28;20299;-70
2021/04/05 08:11:39;;;;;;;2.60;0.90;;;2.20;88.20;;;;;;5007168;28;20095;-69
2021/04/05 08:14:13;;;;;;;5.93;1.30;;;2.10;87.20;;;;;;5007373;28;20033;-68
2021/04/05 08:16:39;;;;;;;4.03;1.40;;;2.30;87.50;;;;;;5017817;28;20111;-67
2021/04/05 08:19:27;;;;;;;6.63;2.30;;;2.30;88.00;;;;;;5005026;28;20057;-69
2021/04/05 08:22:11;;;;;;;1.80;0.80;;;2.40;87.60;;;;;;5011380;28;20026;-71
2021/04/05 08:25:23;;;;;;;8.40;1.40;;;2.40;86.20;;;;;;5005266;28;20394;-70
2021/04/05 08:28:09;;;;;;;7.07;1.20;;;2.60;86.70;;;;;;4956487;28;20597;-70
2021/04/05 08:31:16;;;;;;;7.65;1.25;;;2.80;86.40;;;;;;4963149;28;20035;-69
2021/04/05 08:34:12;;;;;;;4.05;0.70;;;2.90;84.00;;;;;;4974942;28;20398;-69
2021/04/05 08:36:48;;;;;;;5.45;1.48;;;3.10;84.50;;;;;;5009740;28;20038;-69
2021/04/05 08:39:41;;;;;;;6.35;1.23;;;3.10;84.00;;;;;;5003479;28;20327;-70
2021/04/05 08:42:22;;;;;;;10.32;1.20;;;2.90;84.40;;;;;;5001189;28;20028;-69
2021/04/05 08:44:58;;;;;;;4.93;1.17;;;2.90;86.10;;;;;;5002940;28;20030;-69
2021/04/05 08:47:30;;;;;;;6.72;1.00;;;2.70;85.60;;;;;;5007833;28;20127;-72
2021/04/05 08:50:10;;;;;;;3.92;0.90;;;2.60;86.60;;;;;;5009268;28;20038;-69
2021/04/05 08:52:39;;;;;;;2.53;0.90;;;2.30;86.50;;;;;;5004488;28;20033;-69
2021/04/05 08:55:07;;;;;;;2.17;0.60;;;2.20;88.50;;;;;;5009920;28;20084;-70
2021/04/05 08:57:43;;;;;;;3.88;0.60;;;1.90;89.00;;;;;;5007180;28;20116;-71
2021/04/05 09:00:11;;;;;;;4.03;1.00;;;1.80;90.00;;;;;;5002740;28;20018;-70
2021/04/05 09:02:49;;;;;;;8.60;1.13;;;1.90;88.30;;;;;;5002864;28;20367;-69
2021/04/05 09:05:23;;;;;;;3.55;0.90;;;2.00;88.40;;;;;;5005443;28;20038;-70
2021/04/05 09:08:10;;;;;;;8.20;1.25;;;2.10;88.10;;;;;;5004629;28;20156;-70
2021/04/05 09:10:43;;;;;;;6.78;1.20;;;2.60;87.90;;;;;;5002096;28;20034;-68
2021/04/05 09:13:13;;;;;;;1.02;0.50;;;2.60;86.20;;;;;;5008710;28;20045;-69
2021/04/05 09:16:02;;;;;;;0.95;0.50;;;1.90;86.20;;;;;;5007496;28;20034;-69
2021/04/05 09:19:06;;;;;;;2.53;0.82;;;1.80;85.20;;;;;;5005215;28;20036;-70
2021/04/05 09:21:44;;;;;;;2.92;0.82;;;2.10;85.60;;;;;;5017257;28;20026;-69
2021/04/05 09:24:43;;;;;;;4.82;0.88;;;2.60;86.00;;;;;;5004906;28;20026;-69
2021/04/05 09:27:29;;;;;;;3.65;1.00;;;2.60;83.50;;;;;;5011128;28;20081;-68
2021/04/05 09:30:09;;;;;;;3.00;1.02;;;2.60;82.90;;;;;;5005413;28;20026;-70
2021/04/05 09:33:01;;;;;;;10.10;1.63;;;2.60;82.00;;;;;;5006715;28;20033;-70
2021/04/05 09:35:42;;;;;;;5.68;1.20;;;2.80;81.80;;;;;;5007086;28;20036;-69
2021/04/05 09:38:48;;;;;;;7.35;1.75;;;3.10;81.10;;;;;;5009148;28;20040;-69
2021/04/05 09:41:17;;;;;;;7.13;1.25;;;3.60;79.80;;;;;;4947142;28;20535;-69
2021/04/05 09:44:07;;;;;;;8.85;2.00;;;4.00;77.20;;;;;;4995194;28;20530;-70
2021/04/05 09:47:01;;;;;;;9.10;2.05;;;4.00;77.00;;;;;;5015552;28;20505;-69
2021/04/05 09:49:59;;;;;;;11.45;1.60;;;3.80;75.80;;;;;;5010217;28;20512;-69
2021/04/05 09:52:52;;;;;;;9.70;1.83;;;3.70;74.50;;;;;;5011516;28;20115;-69
2021/04/05 09:55:26;;;;;;;8.32;1.80;;;3.90;76.10;;;;;;5008740;28;20041;-68
2021/04/05 09:58:22;;;;;;;10.50;1.73;;;3.80;75.70;;;;;;5008922;28;20065;-70
2021/04/05 10:00:54;;;;;;;9.05;1.80;;;3.50;74.10;;;;;;5022612;28;20079;-70
2021/04/05 10:03:20;;;;;;;8.90;1.70;;;3.60;74.20;;;;;;5009442;28;20025;-69
2021/04/05 10:05:47;;;;;;;13.93;2.00;;;3.40;73.80;;;;;;5010225;28;20018;-69
2021/04/05 10:08:24;;;;;;;13.52;2.22;;;3.20;73.40;;;;;;5006072;28;20455;-68
2021/04/05 10:10:51;;;;;;;11.48;1.88;;;3.10;74.40;;;;;;5006747;28;20160;-69
2021/04/05 10:13:19;;;;;;;10.77;1.80;;;2.60;74.70;;;;;;5009961;28;20014;-68
2021/04/05 10:15:50;;;;;;;8.68;1.45;;;2.10;79.50;;;;;;5009475;28;20130;-69
2021/04/05 10:18:16;;;;;;;8.95;1.67;;;0.90;84.00;;;;;;5020856;28;20030;-69
2021/04/05 10:20:47;;;;;;;5.70;1.80;;;1.10;84.40;;;;;;5009341;28;20640;-68
2021/04/05 10:23:18;;;;;;;6.30;1.85;;;1.40;81.80;;;;;;5009030;28;20026;-69
2021/04/05 10:25:44;;;;;;;30.83;25.92;;;1.80;80.20;;;;;;5002722;28;21074;-70
2021/04/05 10:28:14;;;;;;;14.38;5.97;;;2.10;77.30;;;;;;5007447;28;20026;-68
2021/04/05 10:30:41;;;;;;;11.05;4.30;;;2.40;75.80;;;;;;5008151;28;20030;-71
2021/04/05 10:33:16;;;;;;;5.80;1.98;;;2.70;71.90;;;;;;5007062;28;20109;-68
2021/04/05 10:35:48;;;;;;;9.07;2.05;;;2.90;69.80;;;;;;5015843;28;20132;-68
2021/04/05 10:38:16;;;;;;;5.30;1.85;;;3.40;70.30;;;;;;5007718;28;20105;-69
2021/04/05 10:40:42;;;;;;;7.40;1.63;;;3.70;66.40;;;;;;5005664;28;20026;-69
2021/04/05 10:43:18;;;;;;;12.00;2.30;;;4.10;66.50;;;;;;5003441;28;20105;-69
2021/04/05 10:45:47;;;;;;;6.03;1.05;;;4.50;63.90;;;;;;5006478;28;20032;-69
2021/04/05 10:48:43;;;;;;;8.88;1.50;;;4.20;57.50;;;;;;5007108;28;20471;-69
2021/04/05 10:51:26;;;;;;;5.18;1.25;;;4.60;57.70;;;;;;5003365;28;20471;-70
2021/04/05 10:54:02;;;;;;;4.25;1.00;;;4.70;54.10;;;;;;5001559;28;20390;-71
2021/04/05 10:56:32;;;;;;;7.70;2.05;;;4.40;53.00;;;;;;5002561;28;20026;-70
2021/04/05 10:59:27;;;;;;;8.18;1.80;;;5.20;56.90;;;;;;5007819;28;20145;-70
2021/04/05 11:02:05;;;;;;;5.47;1.25;;;5.10;58.10;;;;;;5006225;28;20036;-71
2021/04/05 11:04:33;;;;;;;8.68;2.03;;;3.90;58.50;;;;;;5004792;28;20483;-70
2021/04/05 11:06:59;;;;;;;6.75;1.67;;;3.60;64.30;;;;;;5004745;28;20022;-72
2021/04/05 11:09:27;;;;;;;10.18;1.77;;;3.10;66.90;;;;;;5001846;28;20029;-70
2021/04/05 11:11:55;;;;;;;12.38;1.67;;;2.50;65.30;;;;;;5005351;28;20038;-71
2021/04/05 11:14:24;;;;;;;8.50;1.95;;;2.50;67.30;;;;;;5005656;28;20034;-70
2021/04/05 11:16:53;;;;;;;7.32;2.20;;;3.10;67.40;;;;;;5009379;28;20522;-72
2021/04/05 11:19:35;;;;;;;5.50;1.17;;;3.70;64.10;;;;;;5004084;28;20109;-69
2021/04/05 11:22:02;;;;;;;9.05;1.45;;;3.90;59.30;;;;;;4978279;28;733236;-70
2021/04/05 11:24:36;;;;;;;7.10;1.40;;;4.20;58.70;;;;;;5008074;28;20018;-70
2021/04/05 11:27:08;;;;;;;5.35;1.35;;;4.80;55.90;;;;;;5006965;28;20026;-70
2021/04/05 11:29:38;;;;;;;11.05;2.00;;;4.40;50.10;;;;;;5007841;28;20473;-70
2021/04/05 11:32:10;;;;;;;4.28;1.13;;;5.10;50.10;;;;;;5005591;28;20119;-71
2021/04/05 11:34:40;;;;;;;6.43;0.95;;;5.10;49.70;;;;;;5007563;28;20422;-70
2021/04/05 11:37:14;;;;;;;10.13;0.98;;;5.30;46.50;;;;;;5013066;28;20029;-71
2021/04/05 11:39:45;;;;;;;4.07;1.13;;;5.80;47.60;;;;;;5007859;28;20022;-71
2021/04/05 11:42:12;;;;;;;4.85;1.20;;;5.90;44.80;;;;;;5005221;28;20080;-71
2021/04/05 11:44:50;;;;;;;5.82;0.80;;;5.80;45.60;;;;;;5006413;28;20053;-69
2021/04/05 11:47:19;;;;;;;4.45;1.05;;;5.00;45.70;;;;;;5009163;28;20052;-70
2021/04/05 11:49:46;;;;;;;1.65;0.73;;;4.90;47.20;;;;;;5006479;28;20116;-72
2021/04/05 11:52:20;;;;;;;4.47;0.95;;;5.30;45.00;;;;;;5008283;28;20442;-68
2021/04/05 11:55:02;;;;;;;5.00;0.90;;;5.70;41.20;;;;;;5006698;28;20041;-69
2021/04/05 11:57:31;;;;;;;7.00;1.45;;;5.80;45.60;;;;;;5002978;28;20058;-70
2021/04/05 12:00:02;;;;;;;5.65;1.08;;;5.20;50.40;;;;;;5004162;28;20026;-68
2021/04/05 12:02:33;;;;;;;5.45;1.15;;;4.20;63.90;;;;;;4986765;28;20040;-68
2021/04/05 12:05:12;;;;;;;6.70;1.37;;;3.30;67.30;;;;;;5002915;28;20739;-71
2021/04/05 12:07:45;;;;;;;4.93;1.00;;;3.20;67.20;;;;;;5009151;28;20649;-72
2021/04/05 12:10:20;;;;;;;3.83;1.02;;;3.40;66.40;;;;;;5004200;28;20032;-73
2021/04/05 12:13:13;;;;;;;4.25;1.02;;;4.30;60.10;;;;;;5003045;28;20260;-71
2021/04/05 12:15:41;;;;;;;6.70;1.70;;;5.10;58.00;;;;;;5001204;28;20049;-71
2021/04/05 12:18:08;;;;;;;5.03;0.90;;;5.70;53.50;;;;;;5002587;28;20032;-69
2021/04/05 12:20:35;;;;;;;4.95;1.30;;;6.10;52.10;;;;;;5007926;28;20040;-69
2021/04/05 12:23:05;;;;;;;5.63;1.15;;;5.90;48.50;;;;;;5004431;28;20061;-70
2021/04/05 12:25:40;;;;;;;7.88;1.40;;;6.70;48.40;;;;;;5005006;28;20033;-71
2021/04/05 12:28:09;;;;;;;6.15;0.85;;;6.40;47.80;;;;;;5003155;28;20030;-70
2021/04/05 12:30:35;;;;;;;3.90;1.30;;;5.90;47.80;;;;;;5002830;28;20080;-70
2021/04/05 12:33:03;;;;;;;3.30;1.10;;;5.30;46.90;;;;;;5005496;28;20037;-70
2021/04/05 12:35:30;;;;;;;4.00;1.25;;;4.90;47.50;;;;;;5006819;28;20048;-70
2021/04/05 12:37:59;;;;;;;3.60;0.82;;;3.70;62.30;;;;;;5004967;28;20048;-69
2021/04/05 12:40:31;;;;;;;4.05;0.90;;;1.50;79.80;;;;;;5003759;28;20034;-70
2021/04/05 12:43:09;;;;;;;5.93;0.88;;;1.10;85.80;;;;;;5003077;28;20543;-69
2021/04/05 12:45:37;;;;;;;3.85;0.93;;;0.90;86.30;;;;;;5002685;28;20495;-70
2021/04/05 12:48:05;;;;;;;4.82;1.20;;;0.80;84.30;;;;;;5003539;28;20037;-69
2021/04/05 12:50:35;;;;;;;7.45;1.40;;;1.00;82.10;;;;;;5004168;28;20120;-69
2021/04/05 12:53:06;;;;;;;11.77;1.70;;;1.10;80.70;;;;;;5003957;28;20411;-69
2021/04/05 12:55:43;;;;;;;5.65;1.30;;;1.10;78.50;;;;;;5004081;28;20446;-68
2021/04/05 12:58:09;;;;;;;6.60;1.17;;;1.30;77.60;;;;;;5004032;28;20029;-68
2021/04/05 13:00:42;;;;;;;7.35;1.50;;;1.70;77.20;;;;;;5006445;28;20045;-68
2021/04/05 13:03:20;;;;;;;4.82;1.05;;;1.70;75.30;;;;;;5002640;28;20022;-69
2021/04/05 13:05:54;;;;;;;5.65;1.05;;;1.60;75.00;;;;;;4999681;28;20022;-67
2021/04/05 13:08:31;;;;;;;3.17;1.05;;;1.60;78.50;;;;;;5002383;28;20018;-68
2021/04/05 13:11:03;;;;;;;3.63;0.80;;;1.00;84.40;;;;;;5004055;28;20589;-69
2021/04/05 13:13:33;;;;;;;1.48;0.60;;;0.50;86.60;;;;;;5004193;28;20109;-67
2021/04/05 13:16:13;;;;;;;3.13;0.70;;;0.50;87.30;;;;;;5003060;28;20025;-69
2021/04/05 13:18:48;;;;;;;5.75;0.80;;;0.80;84.50;;;;;;5004438;28;20052;-68
2021/04/05 13:21:15;;;;;;;2.75;0.68;;;1.50;82.50;;;;;;5002008;28;20121;-68